sensor_id;sensor_type;location;lat;lon;timestamp;P1;durP1;ratioP1;P2;durP2;ratioP2
19339;SDS011;9804;52.350;6.684;2023-06-05T00:00:23;8.13;;;5.50;;
19339;SDS011;9804;52.350;6.684;2023-06-05T00:02:49;12.95;;;6.20;;
19339;SDS011;9804;52.350;6.684;2023-06-05T00:05:14;11.43;;;5.95;;
19339;SDS011;9804;52.350;6.684;2023-06-05T00:07:40;13.32;;;6.20;;
19339;SDS011;9804;52.350;6.684;2023-06-05T00:10:06;10.80;;;6.65;;
19339;SDS011;9804;52.350;6.684;2023-06-05T00:12:32;8.30;;;6.03;;
19339;SDS011;9804;52.350;6.684;2023-06-05T00:14:58;12.40;;;6.88;;
19339;SDS011;9804;52.350;6.684;2023-06-05T00:17:23;10.80;;;7.00;;
19339;SDS011;9804;52.350;6.684;2023-06-05T00:19:49;13.18;;;6.50;;
19339;SDS011;9804;52.350;6.684;2023-06-05T00:22:15;15.15;;;6.30;;
19339;SDS011;9804;52.350;6.684;2023-06-05T00:24:40;10.05;;;6.45;;
19339;SDS011;9804;52.350;6.684;2023-06-05T00:27:05;10.95;;;6.72;;
19339;SDS011;9804;52.350;6.684;2023-06-05T00:29:31;10.02;;;6.53;;
19339;SDS011;9804;52.350;6.684;2023-06-05T00:31:56;9.95;;;6.30;;
19339;SDS011;9804;52.350;6.684;2023-06-05T00:34:21;12.93;;;6.82;;
19339;SDS011;9804;52.350;6.684;2023-06-05T00:36:47;13.52;;;7.20;;
19339;SDS011;9804;52.350;6.684;2023-06-05T00:39:15;9.50;;;7.00;;
19339;SDS011;9804;52.350;6.684;2023-06-05T00:41:41;9.75;;;7.15;;
19339;SDS011;9804;52.350;6.684;2023-06-05T00:44:07;10.02;;;6.63;;
19339;SDS011;9804;52.350;6.684;2023-06-05T00:46:33;12.05;;;7.72;;
19339;SDS011;9804;52.350;6.684;2023-06-05T00:48:58;9.70;;;7.22;;
19339;SDS011;9804;52.350;6.684;2023-06-05T00:51:24;15.63;;;7.50;;
19339;SDS011;9804;52.350;6.684;2023-06-05T00:53:50;12.18;;;7.57;;
19339;SDS011;9804;52.350;6.684;2023-06-05T00:56:15;9.98;;;7.25;;
19339;SDS011;9804;52.350;6.684;2023-06-05T00:58:45;11.98;;;7.25;;
19339;SDS011;9804;52.350;6.684;2023-06-05T01:01:11;11.48;;;7.57;;
19339;SDS011;9804;52.350;6.684;2023-06-05T01:03:39;11.52;;;7.38;;
19339;SDS011;9804;52.350;6.684;2023-06-05T01:06:06;13.52;;;7.63;;
19339;SDS011;9804;52.350;6.684;2023-06-05T01:08:32;12.52;;;8.30;;
19339;SDS011;9804;52.350;6.684;2023-06-05T01:11:04;11.27;;;7.70;;
19339;SDS011;9804;52.350;6.684;2023-06-05T01:13:35;11.18;;;7.30;;
19339;SDS011;9804;52.350;6.684;2023-06-05T01:16:07;12.20;;;8.25;;
19339;SDS011;9804;52.350;6.684;2023-06-05T01:18:35;16.02;;;7.90;;
19339;SDS011;9804;52.350;6.684;2023-06-05T01:21:10;12.85;;;7.35;;
19339;SDS011;9804;52.350;6.684;2023-06-05T01:23:38;11.75;;;7.57;;
19339;SDS011;9804;52.350;6.684;2023-06-05T01:26:09;13.57;;;7.70;;
19339;SDS011;9804;52.350;6.684;2023-06-05T01:28:37;13.43;;;7.82;;
19339;SDS011;9804;52.350;6.684;2023-06-05T01:31:06;10.82;;;7.70;;
19339;SDS011;9804;52.350;6.684;2023-06-05T01:33:40;15.32;;;8.50;;
19339;SDS011;9804;52.350;6.684;2023-06-05T01:36:14;14.25;;;9.05;;
19339;SDS011;9804;52.350;6.684;2023-06-05T01:38:41;12.95;;;8.27;;
19339;SDS011;9804;52.350;6.684;2023-06-05T01:41:08;15.65;;;8.45;;
19339;SDS011;9804;52.350;6.684;2023-06-05T01:43:35;13.40;;;8.07;;
19339;SDS011;9804;52.350;6.684;2023-06-05T01:46:03;15.65;;;8.63;;
19339;SDS011;9804;52.350;6.684;2023-06-05T01:48:31;13.30;;;8.30;;
19339;SDS011;9804;52.350;6.684;2023-06-05T01:50:57;14.82;;;9.40;;
19339;SDS011;9804;52.350;6.684;2023-06-05T01:53:23;12.30;;;8.23;;
19339;SDS011;9804;52.350;6.684;2023-06-05T01:55:49;14.27;;;8.10;;
19339;SDS011;9804;52.350;6.684;2023-06-05T01:58:17;14.93;;;8.73;;
19339;SDS011;9804;52.350;6.684;2023-06-05T02:00:43;11.30;;;8.25;;
19339;SDS011;9804;52.350;6.684;2023-06-05T02:03:10;13.77;;;8.10;;
19339;SDS011;9804;52.350;6.684;2023-06-05T02:05:36;15.57;;;8.50;;
19339;SDS011;9804;52.350;6.684;2023-06-05T02:08:01;14.57;;;9.95;;
19339;SDS011;9804;52.350;6.684;2023-06-05T02:10:30;14.85;;;8.68;;
19339;SDS011;9804;52.350;6.684;2023-06-05T02:12:56;14.52;;;8.00;;
19339;SDS011;9804;52.350;6.684;2023-06-05T02:15:21;13.77;;;8.20;;
19339;SDS011;9804;52.350;6.684;2023-06-05T02:17:47;13.30;;;9.18;;
19339;SDS011;9804;52.350;6.684;2023-06-05T02:20:18;15.45;;;9.02;;
19339;SDS011;9804;52.350;6.684;2023-06-05T02:22:44;17.45;;;8.77;;
19339;SDS011;9804;52.350;6.684;2023-06-05T02:25:10;18.52;;;9.27;;
19339;SDS011;9804;52.350;6.684;2023-06-05T02:27:35;16.05;;;8.85;;
19339;SDS011;9804;52.350;6.684;2023-06-05T02:30:02;15.50;;;9.07;;
19339;SDS011;9804;52.350;6.684;2023-06-05T02:32:27;15.88;;;8.95;;
19339;SDS011;9804;52.350;6.684;2023-06-05T02:34:54;18.08;;;9.68;;
19339;SDS011;9804;52.350;6.684;2023-06-05T02:37:22;14.35;;;8.55;;
19339;SDS011;9804;52.350;6.684;2023-06-05T02:39:48;15.77;;;8.98;;
19339;SDS011;9804;52.350;6.684;2023-06-05T02:42:13;14.05;;;7.90;;
19339;SDS011;9804;52.350;6.684;2023-06-05T02:44:39;18.50;;;8.93;;
19339;SDS011;9804;52.350;6.684;2023-06-05T02:47:04;13.30;;;8.70;;
19339;SDS011;9804;52.350;6.684;2023-06-05T02:49:30;18.75;;;9.15;;
19339;SDS011;9804;52.350;6.684;2023-06-05T02:51:55;17.35;;;9.48;;
19339;SDS011;9804;52.350;6.684;2023-06-05T02:54:20;13.68;;;8.55;;
19339;SDS011;9804;52.350;6.684;2023-06-05T02:56:46;15.45;;;8.23;;
19339;SDS011;9804;52.350;6.684;2023-06-05T02:59:12;15.35;;;9.05;;
19339;SDS011;9804;52.350;6.684;2023-06-05T03:01:37;14.88;;;8.88;;
19339;SDS011;9804;52.350;6.684;2023-06-05T03:04:03;17.25;;;8.95;;
19339;SDS011;9804;52.350;6.684;2023-06-05T03:06:29;19.45;;;9.38;;
19339;SDS011;9804;52.350;6.684;2023-06-05T03:08:58;12.80;;;9.00;;
19339;SDS011;9804;52.350;6.684;2023-06-05T03:11:24;17.88;;;10.10;;
19339;SDS011;9804;52.350;6.684;2023-06-05T03:13:50;15.85;;;9.88;;
19339;SDS011;9804;52.350;6.684;2023-06-05T03:16:16;17.05;;;9.38;;
19339;SDS011;9804;52.350;6.684;2023-06-05T03:18:42;18.00;;;9.90;;
19339;SDS011;9804;52.350;6.684;2023-06-05T03:21:08;17.77;;;10.02;;
19339;SDS011;9804;52.350;6.684;2023-06-05T03:23:35;16.98;;;9.10;;
19339;SDS011;9804;52.350;6.684;2023-06-05T03:26:00;17.17;;;9.63;;
19339;SDS011;9804;52.350;6.684;2023-06-05T03:28:29;16.27;;;9.90;;
19339;SDS011;9804;52.350;6.684;2023-06-05T03:30:58;19.40;;;9.13;;
19339;SDS011;9804;52.350;6.684;2023-06-05T03:33:23;18.98;;;9.82;;
19339;SDS011;9804;52.350;6.684;2023-06-05T03:35:49;21.05;;;9.70;;
19339;SDS011;9804;52.350;6.684;2023-06-05T03:38:14;15.40;;;9.73;;
19339;SDS011;9804;52.350;6.684;2023-06-05T03:40:40;17.13;;;10.30;;
19339;SDS011;9804;52.350;6.684;2023-06-05T03:43:06;19.40;;;9.95;;
19339;SDS011;9804;52.350;6.684;2023-06-05T03:45:32;20.05;;;10.57;;
19339;SDS011;9804;52.350;6.684;2023-06-05T03:47:58;16.55;;;10.23;;
19339;SDS011;9804;52.350;6.684;2023-06-05T03:50:25;21.70;;;11.13;;
19339;SDS011;9804;52.350;6.684;2023-06-05T03:52:56;19.98;;;11.15;;
19339;SDS011;9804;52.350;6.684;2023-06-05T03:55:28;22.17;;;10.80;;
19339;SDS011;9804;52.350;6.684;2023-06-05T03:58:05;21.88;;;10.77;;
19339;SDS011;9804;52.350;6.684;2023-06-05T04:00:33;16.00;;;10.07;;
19339;SDS011;9804;52.350;6.684;2023-06-05T04:02:58;16.65;;;11.02;;
19339;SDS011;9804;52.350;6.684;2023-06-05T04:05:24;20.25;;;11.52;;
19339;SDS011;9804;52.350;6.684;2023-06-05T04:07:49;19.77;;;11.75;;
19339;SDS011;9804;52.350;6.684;2023-06-05T04:10:15;18.67;;;11.35;;
19339;SDS011;9804;52.350;6.684;2023-06-05T04:12:40;22.02;;;12.48;;
19339;SDS011;9804;52.350;6.684;2023-06-05T04:15:06;23.65;;;12.02;;
19339;SDS011;9804;52.350;6.684;2023-06-05T04:17:32;19.38;;;11.52;;
19339;SDS011;9804;52.350;6.684;2023-06-05T04:19:57;21.70;;;12.05;;
19339;SDS011;9804;52.350;6.684;2023-06-05T04:22:22;20.15;;;11.68;;
19339;SDS011;9804;52.350;6.684;2023-06-05T04:24:48;22.23;;;12.73;;
19339;SDS011;9804;52.350;6.684;2023-06-05T04:27:13;22.20;;;12.40;;
19339;SDS011;9804;52.350;6.684;2023-06-05T04:29:39;19.02;;;11.55;;
19339;SDS011;9804;52.350;6.684;2023-06-05T04:32:05;17.50;;;10.77;;
19339;SDS011;9804;52.350;6.684;2023-06-05T04:34:32;18.15;;;10.98;;
19339;SDS011;9804;52.350;6.684;2023-06-05T04:36:57;22.08;;;12.13;;
19339;SDS011;9804;52.350;6.684;2023-06-05T04:39:23;17.23;;;11.88;;
19339;SDS011;9804;52.350;6.684;2023-06-05T04:41:48;19.63;;;11.23;;
19339;SDS011;9804;52.350;6.684;2023-06-05T04:44:14;20.17;;;11.35;;
19339;SDS011;9804;52.350;6.684;2023-06-05T04:46:44;19.83;;;11.40;;
19339;SDS011;9804;52.350;6.684;2023-06-05T04:49:13;18.77;;;11.05;;
19339;SDS011;9804;52.350;6.684;2023-06-05T04:51:40;20.33;;;11.00;;
19339;SDS011;9804;52.350;6.684;2023-06-05T04:54:06;17.20;;;10.73;;
19339;SDS011;9804;52.350;6.684;2023-06-05T04:56:31;17.70;;;11.20;;
19339;SDS011;9804;52.350;6.684;2023-06-05T04:58:59;17.55;;;10.55;;
19339;SDS011;9804;52.350;6.684;2023-06-05T05:01:26;16.65;;;11.07;;
19339;SDS011;9804;52.350;6.684;2023-06-05T05:03:52;17.50;;;11.25;;
19339;SDS011;9804;52.350;6.684;2023-06-05T05:06:19;20.90;;;11.38;;
19339;SDS011;9804;52.350;6.684;2023-06-05T05:08:46;24.38;;;11.13;;
19339;SDS011;9804;52.350;6.684;2023-06-05T05:11:14;19.30;;;11.55;;
19339;SDS011;9804;52.350;6.684;2023-06-05T05:13:40;18.77;;;11.25;;
19339;SDS011;9804;52.350;6.684;2023-06-05T05:16:07;19.42;;;11.73;;
19339;SDS011;9804;52.350;6.684;2023-06-05T05:18:33;19.40;;;11.88;;
19339;SDS011;9804;52.350;6.684;2023-06-05T05:21:02;19.23;;;11.23;;
19339;SDS011;9804;52.350;6.684;2023-06-05T05:23:28;21.90;;;11.23;;
19339;SDS011;9804;52.350;6.684;2023-06-05T05:25:53;17.08;;;10.38;;
19339;SDS011;9804;52.350;6.684;2023-06-05T05:28:19;20.05;;;11.82;;
19339;SDS011;9804;52.350;6.684;2023-06-05T05:30:44;22.10;;;12.10;;
19339;SDS011;9804;52.350;6.684;2023-06-05T05:33:09;18.48;;;11.88;;
19339;SDS011;9804;52.350;6.684;2023-06-05T05:35:35;17.52;;;11.13;;
19339;SDS011;9804;52.350;6.684;2023-06-05T05:38:00;22.67;;;11.70;;
19339;SDS011;9804;52.350;6.684;2023-06-05T05:40:26;19.02;;;10.88;;
19339;SDS011;9804;52.350;6.684;2023-06-05T05:42:51;16.60;;;11.18;;
19339;SDS011;9804;52.350;6.684;2023-06-05T05:45:17;19.00;;;11.23;;
19339;SDS011;9804;52.350;6.684;2023-06-05T05:47:42;19.65;;;12.13;;
19339;SDS011;9804;52.350;6.684;2023-06-05T05:50:08;15.90;;;10.30;;
19339;SDS011;9804;52.350;6.684;2023-06-05T05:52:33;19.30;;;11.15;;
19339;SDS011;9804;52.350;6.684;2023-06-05T05:54:59;16.10;;;10.85;;
19339;SDS011;9804;52.350;6.684;2023-06-05T05:57:24;16.13;;;10.20;;
19339;SDS011;9804;52.350;6.684;2023-06-05T05:59:50;15.13;;;10.43;;
19339;SDS011;9804;52.350;6.684;2023-06-05T06:02:16;16.38;;;10.43;;
19339;SDS011;9804;52.350;6.684;2023-06-05T06:04:42;17.05;;;10.90;;
19339;SDS011;9804;52.350;6.684;2023-06-05T06:07:09;17.90;;;10.45;;
19339;SDS011;9804;52.350;6.684;2023-06-05T06:09:35;16.88;;;10.00;;
19339;SDS011;9804;52.350;6.684;2023-06-05T06:12:00;15.02;;;9.95;;
19339;SDS011;9804;52.350;6.684;2023-06-05T06:14:30;14.07;;;8.90;;
19339;SDS011;9804;52.350;6.684;2023-06-05T06:16:56;15.32;;;9.95;;
19339;SDS011;9804;52.350;6.684;2023-06-05T06:19:23;15.60;;;9.43;;
19339;SDS011;9804;52.350;6.684;2023-06-05T06:21:49;16.67;;;9.48;;
19339;SDS011;9804;52.350;6.684;2023-06-05T06:24:16;16.75;;;9.70;;
19339;SDS011;9804;52.350;6.684;2023-06-05T06:26:45;13.63;;;8.70;;
19339;SDS011;9804;52.350;6.684;2023-06-05T06:29:13;17.17;;;9.57;;
19339;SDS011;9804;52.350;6.684;2023-06-05T06:31:40;11.90;;;8.70;;
19339;SDS011;9804;52.350;6.684;2023-06-05T06:34:07;15.65;;;9.15;;
19339;SDS011;9804;52.350;6.684;2023-06-05T06:36:34;14.48;;;9.48;;
19339;SDS011;9804;52.350;6.684;2023-06-05T06:39:05;16.27;;;9.45;;
19339;SDS011;9804;52.350;6.684;2023-06-05T06:41:33;16.45;;;9.93;;
19339;SDS011;9804;52.350;6.684;2023-06-05T06:44:00;17.05;;;9.20;;
19339;SDS011;9804;52.350;6.684;2023-06-05T06:46:25;13.30;;;9.43;;
19339;SDS011;9804;52.350;6.684;2023-06-05T06:48:51;13.40;;;8.95;;
19339;SDS011;9804;52.350;6.684;2023-06-05T06:51:17;15.18;;;8.50;;
19339;SDS011;9804;52.350;6.684;2023-06-05T06:53:43;14.70;;;8.48;;
19339;SDS011;9804;52.350;6.684;2023-06-05T06:56:08;15.68;;;8.85;;
19339;SDS011;9804;52.350;6.684;2023-06-05T06:58:34;10.57;;;7.57;;
19339;SDS011;9804;52.350;6.684;2023-06-05T07:01:00;12.63;;;8.38;;
19339;SDS011;9804;52.350;6.684;2023-06-05T07:03:26;12.70;;;9.18;;
19339;SDS011;9804;52.350;6.684;2023-06-05T07:05:51;15.15;;;8.63;;
19339;SDS011;9804;52.350;6.684;2023-06-05T07:08:16;13.90;;;8.80;;
19339;SDS011;9804;52.350;6.684;2023-06-05T07:10:42;14.80;;;7.95;;
19339;SDS011;9804;52.350;6.684;2023-06-05T07:13:07;15.95;;;8.65;;
19339;SDS011;9804;52.350;6.684;2023-06-05T07:15:33;15.95;;;8.38;;
19339;SDS011;9804;52.350;6.684;2023-06-05T07:17:58;13.00;;;7.85;;
19339;SDS011;9804;52.350;6.684;2023-06-05T07:20:23;11.45;;;8.05;;
19339;SDS011;9804;52.350;6.684;2023-06-05T07:22:49;14.00;;;8.00;;
19339;SDS011;9804;52.350;6.684;2023-06-05T07:25:14;12.65;;;7.97;;
19339;SDS011;9804;52.350;6.684;2023-06-05T07:27:42;11.35;;;7.65;;
19339;SDS011;9804;52.350;6.684;2023-06-05T07:30:09;10.65;;;8.23;;
19339;SDS011;9804;52.350;6.684;2023-06-05T07:32:35;12.50;;;8.02;;
19339;SDS011;9804;52.350;6.684;2023-06-05T07:35:00;12.60;;;8.75;;
19339;SDS011;9804;52.350;6.684;2023-06-05T07:37:27;11.82;;;7.80;;
19339;SDS011;9804;52.350;6.684;2023-06-05T07:39:52;15.80;;;8.02;;
19339;SDS011;9804;52.350;6.684;2023-06-05T07:42:19;14.73;;;8.02;;
19339;SDS011;9804;52.350;6.684;2023-06-05T07:44:44;11.52;;;6.93;;
19339;SDS011;9804;52.350;6.684;2023-06-05T07:47:10;9.65;;;7.10;;
19339;SDS011;9804;52.350;6.684;2023-06-05T07:49:35;15.43;;;7.72;;
19339;SDS011;9804;52.350;6.684;2023-06-05T07:52:01;9.02;;;6.90;;
19339;SDS011;9804;52.350;6.684;2023-06-05T07:54:26;16.02;;;7.43;;
19339;SDS011;9804;52.350;6.684;2023-06-05T07:56:52;11.48;;;7.75;;
19339;SDS011;9804;52.350;6.684;2023-06-05T07:59:17;14.27;;;7.20;;
19339;SDS011;9804;52.350;6.684;2023-06-05T08:01:49;11.18;;;7.70;;
19339;SDS011;9804;52.350;6.684;2023-06-05T08:04:15;10.27;;;6.72;;
19339;SDS011;9804;52.350;6.684;2023-06-05T08:06:41;11.27;;;7.28;;
19339;SDS011;9804;52.350;6.684;2023-06-05T08:09:07;12.65;;;6.72;;
19339;SDS011;9804;52.350;6.684;2023-06-05T08:11:34;10.60;;;6.82;;
19339;SDS011;9804;52.350;6.684;2023-06-05T08:14:01;11.75;;;7.47;;
19339;SDS011;9804;52.350;6.684;2023-06-05T08:16:28;11.32;;;6.78;;
19339;SDS011;9804;52.350;6.684;2023-06-05T08:18:54;12.43;;;7.05;;
19339;SDS011;9804;52.350;6.684;2023-06-05T08:21:20;9.70;;;6.40;;
19339;SDS011;9804;52.350;6.684;2023-06-05T08:23:45;8.75;;;6.45;;
19339;SDS011;9804;52.350;6.684;2023-06-05T08:26:10;13.43;;;6.95;;
19339;SDS011;9804;52.350;6.684;2023-06-05T08:28:39;11.15;;;6.63;;
19339;SDS011;9804;52.350;6.684;2023-06-05T08:31:06;8.35;;;6.97;;
19339;SDS011;9804;52.350;6.684;2023-06-05T08:33:33;10.82;;;6.72;;
19339;SDS011;9804;52.350;6.684;2023-06-05T08:35:59;13.35;;;6.90;;
19339;SDS011;9804;52.350;6.684;2023-06-05T08:38:24;9.80;;;6.75;;
19339;SDS011;9804;52.350;6.684;2023-06-05T08:40:57;11.88;;;7.38;;
19339;SDS011;9804;52.350;6.684;2023-06-05T08:43:26;9.93;;;7.10;;
19339;SDS011;9804;52.350;6.684;2023-06-05T08:45:52;10.48;;;6.88;;
19339;SDS011;9804;52.350;6.684;2023-06-05T08:48:19;11.73;;;7.45;;
19339;SDS011;9804;52.350;6.684;2023-06-05T08:50:46;12.88;;;7.47;;
19339;SDS011;9804;52.350;6.684;2023-06-05T08:53:13;9.25;;;7.50;;
19339;SDS011;9804;52.350;6.684;2023-06-05T08:55:43;11.63;;;7.15;;
19339;SDS011;9804;52.350;6.684;2023-06-05T08:58:10;8.95;;;7.10;;
19339;SDS011;9804;52.350;6.684;2023-06-05T09:00:38;11.13;;;6.90;;
19339;SDS011;9804;52.350;6.684;2023-06-05T09:03:04;10.70;;;7.38;;
19339;SDS011;9804;52.350;6.684;2023-06-05T09:05:31;12.25;;;7.28;;
19339;SDS011;9804;52.350;6.684;2023-06-05T09:07:56;13.50;;;7.28;;
19339;SDS011;9804;52.350;6.684;2023-06-05T09:10:22;10.70;;;6.95;;
19339;SDS011;9804;52.350;6.684;2023-06-05T09:12:52;10.18;;;6.03;;
19339;SDS011;9804;52.350;6.684;2023-06-05T09:15:29;9.95;;;6.40;;
19339;SDS011;9804;52.350;6.684;2023-06-05T09:20:29;10.63;;;6.53;;
19339;SDS011;9804;52.350;6.684;2023-06-05T09:22:56;10.98;;;6.50;;
19339;SDS011;9804;52.350;6.684;2023-06-05T09:25:22;12.05;;;6.57;;
19339;SDS011;9804;52.350;6.684;2023-06-05T09:28:06;10.50;;;6.68;;
19339;SDS011;9804;52.350;6.684;2023-06-05T09:30:32;11.07;;;6.50;;
19339;SDS011;9804;52.350;6.684;2023-06-05T09:33:07;11.75;;;7.35;;
19339;SDS011;9804;52.350;6.684;2023-06-05T09:35:33;11.82;;;6.32;;
19339;SDS011;9804;52.350;6.684;2023-06-05T09:38:03;11.05;;;7.07;;
19339;SDS011;9804;52.350;6.684;2023-06-05T09:40:49;7.45;;;5.75;;
19339;SDS011;9804;52.350;6.684;2023-06-05T09:43:15;12.38;;;5.90;;
19339;SDS011;9804;52.350;6.684;2023-06-05T09:45:42;10.00;;;6.45;;
19339;SDS011;9804;52.350;6.684;2023-06-05T09:48:13;10.32;;;6.40;;
19339;SDS011;9804;52.350;6.684;2023-06-05T09:50:39;10.98;;;5.40;;
19339;SDS011;9804;52.350;6.684;2023-06-05T09:53:05;10.63;;;6.28;;
19339;SDS011;9804;52.350;6.684;2023-06-05T09:55:32;9.73;;;7.00;;
19339;SDS011;9804;52.350;6.684;2023-06-05T09:57:58;9.98;;;5.55;;
19339;SDS011;9804;52.350;6.684;2023-06-05T10:00:24;11.13;;;5.80;;
19339;SDS011;9804;52.350;6.684;2023-06-05T10:02:50;9.55;;;5.78;;
19339;SDS011;9804;52.350;6.684;2023-06-05T10:05:18;10.60;;;6.13;;
19339;SDS011;9804;52.350;6.684;2023-06-05T10:07:45;8.15;;;6.05;;
19339;SDS011;9804;52.350;6.684;2023-06-05T10:10:12;8.20;;;6.50;;
19339;SDS011;9804;52.350;6.684;2023-06-05T10:12:38;9.70;;;5.72;;
19339;SDS011;9804;52.350;6.684;2023-06-05T10:15:05;9.85;;;5.32;;
19339;SDS011;9804;52.350;6.684;2023-06-05T10:17:31;9.13;;;6.00;;
19339;SDS011;9804;52.350;6.684;2023-06-05T10:19:58;6.80;;;5.47;;
19339;SDS011;9804;52.350;6.684;2023-06-05T10:22:25;9.20;;;5.40;;
19339;SDS011;9804;52.350;6.684;2023-06-05T10:24:56;9.05;;;5.30;;
19339;SDS011;9804;52.350;6.684;2023-06-05T10:40:45;8.98;;;5.13;;
19339;SDS011;9804;52.350;6.684;2023-06-05T10:43:32;9.48;;;4.70;;
19339;SDS011;9804;52.350;6.684;2023-06-05T10:45:59;9.98;;;5.43;;
19339;SDS011;9804;52.350;6.684;2023-06-05T10:51:35;8.13;;;5.22;;
19339;SDS011;9804;52.350;6.684;2023-06-05T10:54:09;10.88;;;5.25;;
19339;SDS011;9804;52.350;6.684;2023-06-05T10:59:17;13.00;;;5.38;;
19339;SDS011;9804;52.350;6.684;2023-06-05T11:01:45;10.90;;;5.18;;
19339;SDS011;9804;52.350;6.684;2023-06-05T11:07:14;5.55;;;4.18;;
19339;SDS011;9804;52.350;6.684;2023-06-05T11:15:06;10.55;;;4.88;;
19339;SDS011;9804;52.350;6.684;2023-06-05T11:17:37;6.00;;;4.13;;
19339;SDS011;9804;52.350;6.684;2023-06-05T11:20:07;7.97;;;4.65;;
19339;SDS011;9804;52.350;6.684;2023-06-05T11:30:16;7.03;;;4.70;;
19339;SDS011;9804;52.350;6.684;2023-06-05T11:32:43;7.68;;;4.25;;
19339;SDS011;9804;52.350;6.684;2023-06-05T11:35:09;6.65;;;4.15;;
19339;SDS011;9804;52.350;6.684;2023-06-05T11:37:35;8.52;;;4.57;;
19339;SDS011;9804;52.350;6.684;2023-06-05T11:40:02;8.48;;;4.90;;
19339;SDS011;9804;52.350;6.684;2023-06-05T11:42:33;9.75;;;4.43;;
19339;SDS011;9804;52.350;6.684;2023-06-05T11:44:59;9.63;;;4.60;;
19339;SDS011;9804;52.350;6.684;2023-06-05T11:47:25;9.77;;;4.28;;
19339;SDS011;9804;52.350;6.684;2023-06-05T11:49:53;7.85;;;5.03;;
19339;SDS011;9804;52.350;6.684;2023-06-05T11:52:19;7.18;;;4.45;;
19339;SDS011;9804;52.350;6.684;2023-06-05T11:54:47;6.20;;;4.03;;
19339;SDS011;9804;52.350;6.684;2023-06-05T11:57:38;8.43;;;4.20;;
19339;SDS011;9804;52.350;6.684;2023-06-05T12:00:04;8.07;;;3.53;;
19339;SDS011;9804;52.350;6.684;2023-06-05T12:02:31;5.93;;;3.75;;
19339;SDS011;9804;52.350;6.684;2023-06-05T12:04:58;5.80;;;4.20;;
19339;SDS011;9804;52.350;6.684;2023-06-05T12:07:27;5.03;;;3.42;;
19339;SDS011;9804;52.350;6.684;2023-06-05T12:09:53;7.07;;;4.00;;
19339;SDS011;9804;52.350;6.684;2023-06-05T12:12:20;8.50;;;4.25;;
19339;SDS011;9804;52.350;6.684;2023-06-05T12:14:45;4.88;;;3.65;;
19339;SDS011;9804;52.350;6.684;2023-06-05T12:17:11;8.13;;;4.03;;
19339;SDS011;9804;52.350;6.684;2023-06-05T12:19:39;7.18;;;3.28;;
19339;SDS011;9804;52.350;6.684;2023-06-05T12:22:06;4.38;;;3.40;;
19339;SDS011;9804;52.350;6.684;2023-06-05T12:24:32;4.70;;;3.15;;
19339;SDS011;9804;52.350;6.684;2023-06-05T12:27:01;5.78;;;3.90;;
19339;SDS011;9804;52.350;6.684;2023-06-05T12:29:31;4.72;;;3.28;;
19339;SDS011;9804;52.350;6.684;2023-06-05T12:31:59;5.13;;;3.30;;
19339;SDS011;9804;52.350;6.684;2023-06-05T12:34:44;8.30;;;3.35;;
19339;SDS011;9804;52.350;6.684;2023-06-05T12:37:11;6.57;;;3.60;;
19339;SDS011;9804;52.350;6.684;2023-06-05T12:39:50;7.97;;;3.33;;
19339;SDS011;9804;52.350;6.684;2023-06-05T12:42:16;7.05;;;3.75;;
19339;SDS011;9804;52.350;6.684;2023-06-05T12:44:41;4.03;;;3.50;;
19339;SDS011;9804;52.350;6.684;2023-06-05T12:47:07;6.50;;;3.28;;
19339;SDS011;9804;52.350;6.684;2023-06-05T12:49:32;6.47;;;3.30;;
19339;SDS011;9804;52.350;6.684;2023-06-05T12:51:58;5.70;;;3.45;;
19339;SDS011;9804;52.350;6.684;2023-06-05T12:54:23;5.38;;;3.42;;
19339;SDS011;9804;52.350;6.684;2023-06-05T12:56:49;5.35;;;3.60;;
19339;SDS011;9804;52.350;6.684;2023-06-05T12:59:14;6.50;;;3.90;;
19339;SDS011;9804;52.350;6.684;2023-06-05T13:01:40;6.03;;;3.47;;
19339;SDS011;9804;52.350;6.684;2023-06-05T13:04:05;7.20;;;2.58;;
19339;SDS011;9804;52.350;6.684;2023-06-05T13:06:31;6.63;;;2.90;;
19339;SDS011;9804;52.350;6.684;2023-06-05T13:08:58;10.68;;;3.60;;
19339;SDS011;9804;52.350;6.684;2023-06-05T13:11:24;4.10;;;2.42;;
19339;SDS011;9804;52.350;6.684;2023-06-05T13:13:49;4.68;;;2.90;;
19339;SDS011;9804;52.350;6.684;2023-06-05T13:16:15;8.07;;;2.90;;
19339;SDS011;9804;52.350;6.684;2023-06-05T13:18:40;6.03;;;3.00;;
19339;SDS011;9804;52.350;6.684;2023-06-05T13:21:06;5.63;;;3.03;;
19339;SDS011;9804;52.350;6.684;2023-06-05T13:23:32;3.78;;;2.53;;
19339;SDS011;9804;52.350;6.684;2023-06-05T13:25:58;6.55;;;3.40;;
19339;SDS011;9804;52.350;6.684;2023-06-05T13:28:24;4.43;;;3.33;;
19339;SDS011;9804;52.350;6.684;2023-06-05T13:30:50;5.72;;;4.03;;
19339;SDS011;9804;52.350;6.684;2023-06-05T13:33:16;13.73;;;3.70;;
19339;SDS011;9804;52.350;6.684;2023-06-05T13:35:43;6.32;;;3.30;;
19339;SDS011;9804;52.350;6.684;2023-06-05T13:38:08;4.55;;;2.50;;
19339;SDS011;9804;52.350;6.684;2023-06-05T13:40:34;6.70;;;2.88;;
19339;SDS011;9804;52.350;6.684;2023-06-05T13:42:59;7.07;;;2.65;;
19339;SDS011;9804;52.350;6.684;2023-06-05T13:45:25;6.40;;;2.70;;
19339;SDS011;9804;52.350;6.684;2023-06-05T13:47:50;4.25;;;2.58;;
19339;SDS011;9804;52.350;6.684;2023-06-05T13:50:17;5.53;;;2.53;;
19339;SDS011;9804;52.350;6.684;2023-06-05T13:52:42;4.18;;;2.35;;
19339;SDS011;9804;52.350;6.684;2023-06-05T13:55:10;5.57;;;2.80;;
19339;SDS011;9804;52.350;6.684;2023-06-05T13:57:35;3.42;;;2.67;;
19339;SDS011;9804;52.350;6.684;2023-06-05T14:00:01;6.13;;;2.83;;
19339;SDS011;9804;52.350;6.684;2023-06-05T14:02:26;4.07;;;2.50;;
19339;SDS011;9804;52.350;6.684;2023-06-05T14:04:51;6.93;;;2.95;;
19339;SDS011;9804;52.350;6.684;2023-06-05T14:07:17;5.80;;;2.92;;
19339;SDS011;9804;52.350;6.684;2023-06-05T14:09:42;4.47;;;2.65;;
19339;SDS011;9804;52.350;6.684;2023-06-05T14:12:08;7.15;;;2.45;;
19339;SDS011;9804;52.350;6.684;2023-06-05T14:14:34;4.20;;;2.50;;
19339;SDS011;9804;52.350;6.684;2023-06-05T14:17:00;2.97;;;2.67;;
19339;SDS011;9804;52.350;6.684;2023-06-05T14:19:26;5.18;;;2.60;;
19339;SDS011;9804;52.350;6.684;2023-06-05T14:21:51;5.13;;;2.42;;
19339;SDS011;9804;52.350;6.684;2023-06-05T14:24:16;5.60;;;3.10;;
19339;SDS011;9804;52.350;6.684;2023-06-05T14:26:44;5.07;;;2.70;;
19339;SDS011;9804;52.350;6.684;2023-06-05T14:29:09;5.55;;;2.65;;
19339;SDS011;9804;52.350;6.684;2023-06-05T14:31:35;5.15;;;2.80;;
19339;SDS011;9804;52.350;6.684;2023-06-05T14:34:02;4.97;;;2.85;;
19339;SDS011;9804;52.350;6.684;2023-06-05T14:36:28;3.08;;;2.20;;
19339;SDS011;9804;52.350;6.684;2023-06-05T14:38:53;3.60;;;2.60;;
19339;SDS011;9804;52.350;6.684;2023-06-05T14:41:18;3.88;;;2.55;;
19339;SDS011;9804;52.350;6.684;2023-06-05T14:43:44;2.78;;;2.45;;
19339;SDS011;9804;52.350;6.684;2023-06-05T14:46:09;5.38;;;2.95;;
19339;SDS011;9804;52.350;6.684;2023-06-05T14:48:34;4.47;;;2.40;;
19339;SDS011;9804;52.350;6.684;2023-06-05T14:51:00;3.65;;;2.95;;
19339;SDS011;9804;52.350;6.684;2023-06-05T14:53:25;4.53;;;2.60;;
19339;SDS011;9804;52.350;6.684;2023-06-05T14:55:52;5.97;;;2.55;;
19339;SDS011;9804;52.350;6.684;2023-06-05T14:58:17;4.32;;;2.67;;
19339;SDS011;9804;52.350;6.684;2023-06-05T15:00:43;5.72;;;2.33;;
19339;SDS011;9804;52.350;6.684;2023-06-05T15:03:10;3.72;;;2.33;;
19339;SDS011;9804;52.350;6.684;2023-06-05T15:05:36;6.15;;;2.03;;
19339;SDS011;9804;52.350;6.684;2023-06-05T15:08:01;2.90;;;2.15;;
19339;SDS011;9804;52.350;6.684;2023-06-05T15:10:26;3.63;;;2.42;;
19339;SDS011;9804;52.350;6.684;2023-06-05T15:12:52;2.67;;;2.20;;
19339;SDS011;9804;52.350;6.684;2023-06-05T15:15:22;4.43;;;2.60;;
19339;SDS011;9804;52.350;6.684;2023-06-05T15:17:48;6.80;;;2.42;;
19339;SDS011;9804;52.350;6.684;2023-06-05T15:20:14;3.35;;;2.33;;
19339;SDS011;9804;52.350;6.684;2023-06-05T15:22:39;4.75;;;2.30;;
19339;SDS011;9804;52.350;6.684;2023-06-05T15:25:05;4.70;;;2.30;;